createdAt,value
2023-01-10T00:01:40.873Z,100.00
2023-01-10T00:04:08.666Z,100.00
2023-01-10T00:06:36.288Z,100.00
2023-01-10T00:09:03.933Z,100.00
2023-01-10T00:11:50.189Z,100.00
2023-01-10T00:14:17.769Z,100.00
2023-01-10T00:16:45.594Z,100.00
2023-01-10T00:19:13.192Z,100.00
2023-01-10T00:21:40.744Z,100.00
2023-01-10T00:24:20.614Z,100.00
2023-01-10T00:26:53.231Z,100.00
2023-01-10T00:29:23.453Z,100.00
2023-01-10T00:31:51.073Z,100.00
2023-01-10T00:34:18.560Z,100.00
2023-01-10T00:36:47.988Z,100.00
2023-01-10T00:39:16.212Z,100.00
2023-01-10T00:42:01.967Z,100.00
2023-01-10T00:44:29.863Z,100.00
2023-01-10T00:46:57.362Z,100.00
2023-01-10T00:49:24.880Z,100.00
2023-01-10T00:51:53.152Z,100.00
2023-01-10T00:54:20.640Z,100.00
2023-01-10T00:56:48.118Z,100.00
2023-01-10T00:59:15.927Z,100.00
2023-01-10T01:01:43.570Z,100.00
2023-01-10T01:04:11.354Z,100.00
2023-01-10T01:06:39.203Z,100.00
2023-01-10T01:09:06.721Z,100.00
2023-01-10T01:11:34.334Z,99.79
2023-01-10T01:14:02.210Z,99.43
2023-01-10T01:16:29.917Z,99.05
2023-01-10T01:18:58.179Z,98.92
2023-01-10T01:21:28.998Z,98.59
2023-01-10T01:23:59.456Z,98.35
2023-01-10T01:26:27.237Z,98.37
2023-01-10T01:28:55.405Z,98.40
2023-01-10T01:31:23.031Z,98.34
2023-01-10T01:33:51.688Z,98.45
2023-01-10T01:36:20.091Z,98.58
2023-01-10T01:38:47.926Z,98.91
2023-01-10T01:41:34.200Z,98.96
2023-01-10T01:44:06.271Z,99.21
2023-01-10T01:46:37.133Z,99.36
2023-01-10T01:49:07.010Z,99.61
2023-01-10T01:51:35.049Z,99.67
2023-01-10T01:54:07.636Z,99.79
2023-01-10T01:56:42.973Z,99.85
2023-01-10T01:59:30.721Z,99.84
2023-01-10T02:02:03.684Z,99.84
2023-01-10T02:04:37.811Z,99.97
2023-01-10T02:07:05.641Z,100.00
2023-01-10T02:09:39.250Z,100.00
2023-01-10T02:12:07.670Z,100.00
2023-01-10T02:14:36.489Z,100.00
2023-01-10T02:17:04.029Z,100.00
2023-01-10T02:19:58.802Z,100.00
2023-01-10T02:23:00.566Z,100.00
2023-01-10T02:25:52.436Z,100.00
2023-01-10T02:28:22.880Z,100.00
2023-01-10T02:31:12.122Z,99.84
2023-01-10T02:33:59.518Z,99.53
2023-01-10T02:36:39.664Z,99.24
2023-01-10T02:39:18.272Z,98.92
2023-01-10T02:41:52.271Z,98.79
2023-01-10T02:44:28.016Z,98.63
2023-01-10T02:46:56.614Z,98.59
2023-01-10T02:49:24.135Z,98.21
2023-01-10T02:51:51.683Z,98.05
2023-01-10T02:54:23.486Z,98.00
2023-01-10T02:57:34.581Z,98.07
2023-01-10T03:00:26.859Z,97.89
2023-01-10T03:03:06.312Z,97.70
2023-01-10T03:05:52.150Z,97.54
2023-01-10T03:08:35.996Z,97.45
2023-01-10T03:11:06.878Z,97.41
2023-01-10T03:13:44.820Z,97.55
2023-01-10T03:16:17.345Z,97.53
2023-01-10T03:19:00.803Z,97.60
2023-01-10T03:21:29.843Z,97.63
2023-01-10T03:24:04.713Z,97.64
2023-01-10T03:26:51.583Z,97.54
2023-01-10T03:29:24.441Z,97.40
2023-01-10T03:31:55.397Z,97.49
2023-01-10T03:34:23.590Z,97.37
2023-01-10T03:37:10.408Z,97.51
2023-01-10T03:39:45.378Z,97.78
2023-01-10T03:42:23.477Z,97.88
2023-01-10T03:45:09.426Z,98.08
2023-01-10T03:47:45.795Z,98.49
2023-01-10T03:50:18.730Z,98.21
2023-01-10T03:52:46.341Z,98.73
2023-01-10T03:55:16.865Z,98.23
2023-01-10T03:57:45.888Z,98.44
2023-01-10T04:00:14.021Z,98.64
2023-01-10T04:02:41.971Z,99.20
2023-01-10T04:05:09.697Z,99.23
2023-01-10T04:07:37.421Z,98.90
2023-01-10T04:10:08.512Z,98.83
2023-01-10T04:12:36.100Z,99.13
2023-01-10T04:15:04.143Z,99.09
2023-01-10T04:17:31.973Z,99.24
2023-01-10T04:19:59.563Z,98.98
2023-01-10T04:22:27.300Z,99.29
2023-01-10T04:24:55.129Z,99.40
2023-01-10T04:27:22.679Z,99.09
2023-01-10T04:29:50.356Z,99.97
2023-01-10T04:32:18.266Z,99.90
2023-01-10T04:34:45.851Z,100.00
2023-01-10T04:37:13.421Z,100.00
2023-01-10T04:39:41.472Z,100.00
2023-01-10T04:42:08.947Z,100.00
2023-01-10T04:44:36.558Z,100.00
2023-01-10T04:47:04.358Z,100.00
2023-01-10T04:49:31.894Z,100.00
2023-01-10T04:51:59.472Z,100.00
2023-01-10T04:54:27.354Z,100.00
2023-01-10T04:56:54.816Z,100.00
2023-01-10T04:59:22.561Z,100.00
2023-01-10T05:01:50.519Z,100.00
2023-01-10T05:04:20.720Z,100.00
2023-01-10T05:06:49.429Z,100.00
2023-01-10T05:09:17.509Z,100.00
2023-01-10T05:11:45.271Z,100.00
2023-01-10T05:14:12.792Z,100.00
2023-01-10T05:16:40.603Z,100.00
2023-01-10T05:19:09.820Z,100.00
2023-01-10T05:21:37.370Z,100.00
2023-01-10T05:24:05.593Z,100.00
2023-01-10T05:26:33.215Z,100.00
2023-01-10T05:29:00.807Z,100.00
2023-01-10T05:31:28.648Z,100.00
2023-01-10T05:33:56.159Z,100.00
2023-01-10T05:36:23.746Z,100.00
2023-01-10T05:38:51.516Z,100.00
2023-01-10T05:41:19.031Z,100.00
2023-01-10T05:43:46.554Z,100.00
2023-01-10T05:46:14.429Z,100.00
2023-01-10T05:48:42.166Z,100.00
2023-01-10T05:51:10.222Z,100.00
2023-01-10T05:53:38.162Z,100.00
2023-01-10T05:56:07.840Z,100.00
2023-01-10T05:58:35.450Z,100.00
2023-01-10T06:01:05.774Z,100.00
2023-01-10T06:03:33.559Z,100.00
2023-01-10T06:06:03.231Z,100.00
2023-01-10T06:08:30.702Z,100.00
2023-01-10T06:10:58.505Z,100.00
2023-01-10T06:13:26.071Z,100.00
2023-01-10T06:15:53.621Z,100.00
2023-01-10T06:18:21.429Z,100.00
2023-01-10T06:20:49.012Z,100.00
2023-01-10T06:23:16.831Z,100.00
2023-01-10T06:25:44.888Z,100.00
2023-01-10T06:28:13.998Z,100.00
2023-01-10T06:30:43.534Z,100.00
2023-01-10T06:33:12.139Z,100.00
2023-01-10T06:35:40.055Z,100.00
2023-01-10T06:38:07.615Z,100.00
2023-01-10T06:40:35.472Z,100.00
2023-01-10T06:43:03.235Z,100.00
2023-01-10T06:45:31.454Z,100.00
2023-01-10T06:47:59.474Z,100.00
2023-01-10T06:50:27.248Z,100.00
2023-01-10T06:52:58.853Z,100.00
2023-01-10T06:55:27.383Z,100.00
2023-01-10T06:58:00.139Z,100.00
2023-01-10T07:00:29.870Z,100.00
2023-01-10T07:02:58.738Z,100.00
2023-01-10T07:05:26.483Z,100.00
2023-01-10T07:07:54.532Z,100.00
2023-01-10T07:10:22.103Z,100.00
2023-01-10T07:12:49.661Z,100.00
2023-01-10T07:15:17.450Z,100.00
2023-01-10T07:17:45.161Z,100.00
2023-01-10T07:20:13.040Z,100.00
2023-01-10T07:22:41.067Z,100.00
2023-01-10T07:25:08.848Z,100.00
2023-01-10T07:27:36.663Z,100.00
2023-01-10T07:30:05.002Z,100.00
2023-01-10T07:32:34.078Z,100.00
2023-01-10T07:35:01.766Z,100.00
2023-01-10T07:37:29.641Z,100.00
2023-01-10T07:39:57.457Z,100.00
2023-01-10T07:42:25.113Z,100.00
2023-01-10T07:44:53.082Z,100.00
2023-01-10T07:47:20.611Z,100.00
2023-01-10T07:49:48.654Z,100.00
2023-01-10T07:52:16.607Z,100.00
2023-01-10T07:54:44.498Z,100.00
2023-01-10T07:57:12.526Z,100.00
2023-01-10T07:59:41.203Z,100.00
2023-01-10T08:02:11.174Z,100.00
2023-01-10T08:04:39.168Z,100.00
2023-01-10T08:07:06.724Z,100.00
2023-01-10T08:09:34.410Z,100.00
2023-01-10T08:12:02.544Z,100.00
2023-01-10T08:14:30.230Z,100.00
2023-01-10T08:16:57.842Z,100.00
2023-01-10T08:19:25.874Z,100.00
2023-01-10T08:21:55.041Z,100.00
2023-01-10T08:24:22.662Z,100.00
2023-01-10T08:26:50.710Z,100.00
2023-01-10T08:29:19.136Z,100.00
2023-01-10T08:31:48.047Z,100.00
2023-01-10T08:34:17.989Z,100.00
2023-01-10T08:36:46.863Z,100.00
2023-01-10T08:39:14.474Z,100.00
2023-01-10T08:41:42.593Z,100.00
2023-01-10T08:44:12.537Z,100.00
2023-01-10T08:46:40.735Z,100.00
2023-01-10T08:49:11.359Z,100.00
2023-01-10T08:51:40.423Z,100.00
2023-01-10T08:54:08.293Z,100.00
2023-01-10T08:56:40.490Z,100.00
2023-01-10T08:59:08.731Z,100.00
2023-01-10T09:01:36.839Z,100.00
2023-01-10T09:04:05.517Z,100.00
2023-01-10T09:06:33.261Z,100.00
2023-01-10T09:09:01.237Z,100.00
2023-01-10T09:11:29.551Z,100.00
2023-01-10T09:13:57.173Z,100.00
2023-01-10T09:16:25.246Z,100.00
2023-01-10T09:18:53.154Z,100.00
2023-01-10T09:21:20.893Z,100.00
2023-01-10T09:23:48.968Z,100.00
2023-01-10T09:26:16.601Z,100.00
2023-01-10T09:28:44.575Z,100.00
2023-01-10T09:31:12.682Z,100.00
2023-01-10T09:33:47.190Z,100.00
2023-01-10T09:36:16.258Z,100.00
2023-01-10T09:38:44.522Z,100.00
2023-01-10T09:41:30.709Z,100.00
2023-01-10T09:44:17.108Z,100.00
2023-01-10T09:46:53.544Z,100.00
2023-01-10T09:49:33.366Z,100.00
2023-01-10T09:52:08.831Z,100.00
2023-01-10T09:54:42.070Z,100.00
2023-01-10T09:57:20.986Z,100.00
2023-01-10T09:59:51.690Z,100.00
2023-01-10T10:02:36.807Z,100.00
2023-01-10T10:05:18.858Z,100.00
2023-01-10T10:07:52.470Z,100.00
2023-01-10T10:10:26.449Z,100.00
2023-01-10T10:13:01.375Z,100.00
2023-01-10T10:15:41.343Z,100.00
2023-01-10T10:18:37.964Z,100.00
2023-01-10T10:21:17.956Z,100.00
2023-01-10T10:24:00.703Z,100.00
2023-01-10T10:26:53.512Z,100.00
2023-01-10T10:29:27.307Z,100.00
2023-01-10T10:32:04.193Z,100.00
2023-01-10T10:34:37.750Z,100.00
2023-01-10T10:37:23.190Z,100.00
2023-01-10T10:40:01.459Z,100.00
2023-01-10T10:42:40.353Z,100.00
2023-01-10T10:45:11.011Z,100.00
2023-01-10T10:47:40.878Z,100.00
2023-01-10T10:50:14.296Z,100.00
2023-01-10T10:52:44.304Z,100.00
2023-01-10T10:55:23.178Z,100.00
2023-01-10T10:57:59.710Z,100.00
2023-01-10T11:00:29.515Z,100.00
2023-01-10T11:03:18.764Z,100.00
2023-01-10T11:05:47.892Z,100.00
2023-01-10T11:08:17.748Z,100.00
2023-01-10T11:10:52.789Z,100.00
2023-01-10T11:13:26.689Z,100.00
2023-01-10T11:15:56.169Z,100.00
2023-01-10T11:18:28.120Z,100.00
2023-01-10T11:21:09.095Z,100.00
2023-01-10T11:23:56.166Z,100.00
2023-01-10T11:26:23.767Z,100.00
2023-01-10T11:28:53.741Z,100.00
2023-01-10T11:31:31.088Z,100.00
2023-01-10T11:34:01.571Z,100.00
2023-01-10T11:37:18.786Z,100.00
2023-01-10T11:39:49.311Z,100.00
2023-01-10T11:42:30.012Z,100.00
2023-01-10T11:45:34.021Z,100.00
2023-01-10T11:48:05.451Z,100.00
2023-01-10T11:50:38.565Z,100.00
2023-01-10T11:53:07.333Z,100.00
2023-01-10T11:55:38.077Z,100.00
2023-01-10T11:58:16.818Z,100.00
2023-01-10T12:00:49.768Z,100.00
2023-01-10T12:03:27.429Z,100.00
2023-01-10T12:06:04.680Z,100.00
2023-01-10T12:08:34.651Z,100.00
2023-01-10T12:11:07.543Z,100.00
2023-01-10T12:13:51.126Z,100.00
2023-01-10T12:16:30.660Z,100.00
2023-01-10T12:19:01.159Z,100.00
2023-01-10T12:21:44.266Z,100.00
2023-01-10T12:24:19.115Z,100.00
2023-01-10T12:26:51.273Z,100.00
2023-01-10T12:29:26.923Z,100.00
2023-01-10T12:31:56.117Z,100.00
2023-01-10T12:34:27.355Z,100.00
2023-01-10T12:37:19.223Z,100.00
2023-01-10T12:39:54.218Z,100.00
2023-01-10T12:42:59.055Z,100.00
2023-01-10T12:45:30.553Z,100.00
2023-01-10T12:48:10.356Z,100.00
2023-01-10T12:50:51.439Z,100.00
2023-01-10T12:53:43.987Z,100.00
2023-01-10T12:56:15.309Z,100.00
2023-01-10T12:58:49.634Z,100.00
2023-01-10T13:01:31.633Z,100.00
2023-01-10T13:04:04.323Z,100.00
2023-01-10T13:06:38.118Z,100.00
2023-01-10T13:09:08.532Z,100.00
2023-01-10T13:11:42.830Z,100.00
2023-01-10T13:14:14.136Z,100.00
2023-01-10T13:16:50.873Z,100.00
2023-01-10T13:19:21.575Z,100.00
2023-01-10T13:21:49.765Z,100.00
2023-01-10T13:24:24.312Z,100.00
2023-01-10T13:26:59.614Z,100.00
2023-01-10T13:29:32.429Z,100.00
2023-01-10T13:32:19.005Z,100.00
2023-01-10T13:34:47.005Z,100.00
2023-01-10T13:37:23.272Z,100.00
2023-01-10T13:39:55.809Z,100.00
2023-01-10T13:42:49.461Z,100.00
2023-01-10T13:45:18.360Z,100.00
2023-01-10T13:47:47.872Z,100.00
2023-01-10T13:50:24.746Z,100.00
2023-01-10T13:52:53.672Z,100.00
2023-01-10T13:55:40.068Z,100.00
2023-01-10T13:58:13.911Z,100.00
2023-01-10T14:01:04.091Z,100.00
2023-01-10T14:03:41.332Z,100.00
2023-01-10T14:06:27.713Z,100.00
2023-01-10T14:09:02.211Z,100.00
2023-01-10T14:11:48.876Z,100.00
2023-01-10T14:14:25.120Z,100.00
2023-01-10T14:16:55.765Z,100.00
2023-01-10T14:19:29.329Z,100.00
2023-01-10T14:21:59.569Z,100.00
2023-01-10T14:24:29.796Z,100.00
2023-01-10T14:26:59.677Z,100.00
2023-01-10T14:29:31.716Z,100.00
2023-01-10T14:32:00.578Z,100.00
2023-01-10T14:34:30.798Z,100.00
2023-01-10T14:37:32.103Z,100.00
2023-01-10T14:40:00.184Z,100.00
2023-01-10T14:42:29.140Z,100.00
2023-01-10T14:45:41.658Z,100.00
2023-01-10T14:48:51.742Z,100.00
2023-01-10T14:51:27.276Z,100.00
2023-01-10T14:54:02.152Z,100.00
2023-01-10T14:56:39.230Z,100.00
2023-01-10T14:59:31.492Z,100.00
2023-01-10T15:02:10.712Z,100.00
2023-01-10T15:04:49.449Z,100.00
2023-01-10T15:07:17.542Z,100.00
2023-01-10T15:09:53.452Z,100.00
2023-01-10T15:12:23.025Z,100.00
2023-01-10T15:14:58.297Z,100.00
2023-01-10T15:17:26.140Z,100.00
2023-01-10T15:19:59.848Z,100.00
2023-01-10T15:22:30.988Z,100.00
2023-01-10T15:25:04.941Z,100.00
2023-01-10T15:27:33.740Z,100.00
2023-01-10T15:30:01.972Z,100.00
2023-01-10T15:32:39.424Z,100.00
2023-01-10T15:35:09.004Z,100.00
2023-01-10T15:37:39.365Z,100.00
2023-01-10T15:40:20.576Z,100.00
2023-01-10T15:42:48.202Z,100.00
2023-01-10T15:45:31.198Z,100.00
2023-01-10T15:48:05.429Z,100.00
2023-01-10T15:50:40.307Z,100.00
2023-01-10T15:53:10.838Z,100.00
2023-01-10T15:55:40.761Z,100.00
2023-01-10T15:58:29.607Z,100.00
2023-01-10T16:00:59.278Z,100.00
2023-01-10T16:03:36.770Z,100.00
2023-01-10T16:06:09.775Z,100.00
2023-01-10T16:08:38.777Z,100.00
2023-01-10T16:11:42.898Z,100.00
2023-01-10T16:14:10.898Z,100.00
2023-01-10T16:16:38.668Z,100.00
2023-01-10T16:19:06.492Z,100.00
2023-01-10T16:21:43.625Z,100.00
2023-01-10T16:24:17.927Z,100.00
2023-01-10T16:26:46.785Z,100.00
2023-01-10T16:29:14.668Z,100.00
2023-01-10T16:31:42.869Z,100.00
2023-01-10T16:34:11.455Z,100.00
2023-01-10T16:36:41.331Z,100.00
2023-01-10T16:39:15.693Z,100.00
2023-01-10T16:42:02.900Z,100.00
2023-01-10T16:44:31.046Z,100.00
2023-01-10T16:46:59.185Z,100.00
2023-01-10T16:49:27.094Z,100.00
2023-01-10T16:51:57.159Z,100.00
2023-01-10T16:54:28.471Z,100.00
2023-01-10T16:56:56.352Z,100.00
2023-01-10T16:59:23.947Z,100.00
2023-01-10T17:01:54.644Z,100.00
2023-01-10T17:04:32.599Z,100.00
2023-01-10T17:07:00.608Z,100.00
2023-01-10T17:09:30.176Z,100.00
2023-01-10T17:12:04.507Z,100.00
2023-01-10T17:14:36.571Z,100.00
2023-01-10T17:17:04.738Z,100.00
2023-01-10T17:19:32.660Z,100.00
2023-01-10T17:22:00.561Z,100.00
2023-01-10T17:24:29.924Z,100.00
2023-01-10T17:26:57.771Z,100.00
2023-01-10T17:29:25.721Z,100.00
2023-01-10T17:31:53.462Z,100.00
2023-01-10T17:34:21.300Z,100.00
2023-01-10T17:36:48.877Z,100.00
2023-01-10T17:39:23.471Z,100.00
2023-01-10T17:41:51.422Z,100.00
2023-01-10T17:44:18.947Z,100.00
2023-01-10T17:46:46.558Z,100.00
2023-01-10T17:49:14.748Z,100.00
2023-01-10T17:51:42.439Z,100.00
2023-01-10T17:54:09.971Z,100.00
2023-01-10T17:56:37.785Z,100.00
2023-01-10T17:59:05.709Z,100.00
2023-01-10T18:01:33.790Z,100.00
2023-01-10T18:04:01.825Z,100.00
2023-01-10T18:06:29.368Z,100.00
2023-01-10T18:08:56.962Z,100.00
2023-01-10T18:11:25.325Z,100.00
2023-01-10T18:13:53.123Z,100.00
2023-01-10T18:16:21.189Z,100.00
2023-01-10T18:18:49.175Z,100.00
2023-01-10T18:21:19.172Z,100.00
2023-01-10T18:23:47.727Z,100.00
2023-01-10T18:26:15.738Z,100.00
2023-01-10T18:28:44.688Z,100.00
2023-01-10T18:31:17.661Z,100.00
2023-01-10T18:33:46.804Z,100.00
2023-01-10T18:36:22.399Z,100.00
2023-01-10T18:38:51.599Z,100.00
2023-01-10T18:41:20.818Z,100.00
2023-01-10T18:43:48.765Z,100.00
2023-01-10T18:46:21.597Z,100.00
2023-01-10T18:48:52.597Z,100.00
2023-01-10T18:51:22.649Z,100.00
2023-01-10T18:53:52.904Z,100.00
2023-01-10T18:56:21.175Z,100.00
2023-01-10T18:58:48.817Z,100.00
2023-01-10T19:01:18.933Z,100.00
2023-01-10T19:03:47.645Z,100.00
2023-01-10T19:06:16.784Z,100.00
2023-01-10T19:08:46.044Z,100.00
2023-01-10T19:11:16.117Z,100.00
2023-01-10T19:13:45.480Z,100.00
2023-01-10T19:16:14.282Z,100.00
2023-01-10T19:18:43.084Z,100.00
2023-01-10T19:21:17.249Z,100.00
2023-01-10T19:23:47.595Z,100.00
2023-01-10T19:26:15.635Z,100.00
2023-01-10T19:28:44.567Z,100.00
2023-01-10T19:31:24.547Z,100.00
2023-01-10T19:33:52.673Z,100.00
2023-01-10T19:36:22.729Z,100.00
2023-01-10T19:38:55.925Z,100.00
2023-01-10T19:41:28.630Z,100.00
2023-01-10T19:43:57.992Z,100.00
2023-01-10T19:46:26.917Z,100.00
2023-01-10T19:48:58.505Z,100.00
2023-01-10T19:51:26.377Z,100.00
2023-01-10T19:53:53.951Z,100.00
2023-01-10T19:56:23.088Z,100.00
2023-01-10T19:58:51.312Z,100.00
2023-01-10T20:01:23.369Z,100.00
2023-01-10T20:03:51.994Z,98.74
2023-01-10T20:06:21.851Z,99.81
2023-01-10T20:08:49.626Z,99.60
2023-01-10T20:11:19.112Z,100.00
2023-01-10T20:13:48.328Z,100.00
2023-01-10T20:16:21.437Z,100.00
2023-01-10T20:18:49.918Z,100.00
2023-01-10T20:21:18.559Z,100.00
2023-01-10T20:23:46.569Z,100.00
2023-01-10T20:26:23.097Z,100.00
2023-01-10T20:28:50.777Z,100.00
2023-01-10T20:31:24.108Z,100.00
2023-01-10T20:33:51.811Z,100.00
2023-01-10T20:36:22.231Z,100.00
2023-01-10T20:38:50.487Z,100.00
2023-01-10T20:41:21.714Z,100.00
2023-01-10T20:43:49.918Z,100.00
2023-01-10T20:46:24.427Z,100.00
2023-01-10T20:48:53.809Z,100.00
2023-01-10T20:51:24.338Z,100.00
2023-01-10T20:53:52.206Z,100.00
2023-01-10T20:56:23.272Z,100.00
2023-01-10T20:58:51.620Z,100.00
2023-01-10T21:01:33.220Z,100.00
2023-01-10T21:04:02.369Z,100.00
2023-01-10T21:06:30.346Z,100.00
2023-01-10T21:08:57.938Z,100.00
2023-01-10T21:11:25.869Z,100.00
2023-01-10T21:13:54.075Z,100.00
2023-01-10T21:16:22.563Z,100.00
2023-01-10T21:18:50.816Z,100.00
2023-01-10T21:21:22.626Z,100.00
2023-01-10T21:23:50.499Z,100.00
2023-01-10T21:26:18.379Z,100.00
2023-01-10T21:28:49.378Z,100.00
2023-01-10T21:31:19.708Z,100.00
2023-01-10T21:33:49.174Z,100.00
2023-01-10T21:36:17.595Z,100.00
2023-01-10T21:38:45.261Z,100.00
2023-01-10T21:41:35.186Z,100.00
2023-01-10T21:44:03.809Z,100.00
2023-01-10T21:46:31.987Z,100.00
2023-01-10T21:49:04.306Z,100.00
2023-01-10T21:51:32.276Z,100.00
2023-01-10T21:53:59.994Z,100.00
2023-01-10T21:56:28.464Z,100.00
2023-01-10T21:58:56.374Z,100.00
2023-01-10T22:01:24.032Z,100.00
2023-01-10T22:03:52.021Z,99.54
2023-01-10T22:06:19.637Z,100.00
2023-01-10T22:08:47.362Z,99.28
2023-01-10T22:11:15.305Z,98.63
2023-01-10T22:13:42.862Z,98.57
2023-01-10T22:16:10.686Z,98.45
2023-01-10T22:18:38.573Z,98.96
2023-01-10T22:21:06.238Z,97.61
2023-01-10T22:23:34.713Z,97.84
2023-01-10T22:26:04.937Z,98.17
2023-01-10T22:28:33.228Z,97.90
2023-01-10T22:31:01.413Z,97.83
2023-01-10T22:33:30.723Z,98.07
2023-01-10T22:36:05.435Z,97.64
2023-01-10T22:38:34.204Z,97.73
2023-01-10T22:41:16.354Z,96.68
2023-01-10T22:43:44.723Z,96.76
2023-01-10T22:46:16.186Z,96.66
2023-01-10T22:48:44.573Z,96.39
2023-01-10T22:51:13.745Z,96.08
2023-01-10T22:53:41.659Z,95.69
2023-01-10T22:56:10.794Z,95.80
2023-01-10T22:58:38.384Z,96.20
2023-01-10T23:01:06.943Z,95.94
2023-01-10T23:03:34.860Z,96.32
2023-01-10T23:06:02.552Z,96.00
2023-01-10T23:08:30.054Z,96.12
2023-01-10T23:10:57.912Z,96.24
2023-01-10T23:13:25.879Z,96.43
2023-01-10T23:16:01.743Z,96.92
2023-01-10T23:18:30.312Z,96.39
2023-01-10T23:20:58.075Z,96.82
2023-01-10T23:23:26.525Z,96.85
2023-01-10T23:26:03.777Z,96.71
2023-01-10T23:28:33.622Z,97.18
2023-01-10T23:31:02.107Z,96.93
2023-01-10T23:33:29.672Z,97.14
2023-01-10T23:35:57.200Z,97.71
2023-01-10T23:38:25.159Z,98.07
2023-01-10T23:40:52.751Z,98.07
2023-01-10T23:43:20.555Z,98.05
2023-01-10T23:45:48.366Z,98.24
2023-01-10T23:48:16.106Z,98.50
2023-01-10T23:50:43.639Z,98.13
2023-01-10T23:53:11.879Z,97.94
2023-01-10T23:55:39.432Z,97.68
2023-01-10T23:58:07.382Z,97.24
